createdAt,value
2019-04-22T00:02:22.188Z,53.70
2019-04-22T00:05:01.114Z,53.30
2019-04-22T00:07:42.029Z,52.70
2019-04-22T00:10:11.524Z,52.80
2019-04-22T00:12:46.864Z,52.60
2019-04-22T00:15:03.695Z,53.80
2019-04-22T00:17:48.218Z,53.60
2019-04-22T00:20:08.722Z,54.10
2019-04-22T00:22:51.591Z,54.80
2019-04-22T00:25:10.471Z,54.30
2019-04-22T00:30:07.293Z,54.80
2019-04-22T00:32:55.944Z,55.70
2019-04-22T00:35:23.728Z,56.70
2019-04-22T00:37:56.706Z,57.30
2019-04-22T00:40:30.616Z,57.20
2019-04-22T00:42:53.801Z,58.20
2019-04-22T00:47:46.704Z,57.70
2019-04-22T00:50:18.994Z,57.00
2019-04-22T00:52:49.406Z,56.80
2019-04-22T00:55:18.187Z,58.20
2019-04-22T00:57:46.267Z,55.90
2019-04-22T01:00:11.911Z,55.20
2019-04-22T01:05:14.911Z,53.80
2019-04-22T01:07:35.797Z,53.90
2019-04-22T01:10:12.771Z,54.70
2019-04-22T01:12:39.514Z,55.20
2019-04-22T01:15:07.073Z,55.20
2019-04-22T01:17:32.918Z,55.60
2019-04-22T01:20:10.423Z,54.80
2019-04-22T01:22:27.209Z,56.60
2019-04-22T01:24:56.142Z,56.80
2019-04-22T01:27:23.435Z,57.40
2019-04-22T01:29:46.745Z,57.30
2019-04-22T01:32:05.920Z,56.60
2019-04-22T01:34:49.321Z,57.40
2019-04-22T01:37:22.806Z,57.70
2019-04-22T01:40:00.134Z,57.10
2019-04-22T01:42:15.742Z,55.30
2019-04-22T01:45:12.085Z,55.70
2019-04-22T01:47:20.764Z,55.70
2019-04-22T01:49:47.537Z,55.40
2019-04-22T01:52:18.659Z,54.60
2019-04-22T01:54:52.712Z,56.30
2019-04-22T01:57:10.961Z,55.10
2019-04-22T01:59:37.116Z,53.90
2019-04-22T02:02:14.055Z,52.90
2019-04-22T02:04:47.623Z,55.60
2019-04-22T02:07:10.788Z,53.80
2019-04-22T02:09:47.578Z,53.10
2019-04-22T02:14:39.426Z,53.10
2019-04-22T02:17:09.172Z,52.80
2019-04-22T02:22:04.078Z,54.00
2019-04-22T02:24:33.301Z,54.60
2019-04-22T02:26:54.560Z,54.90
2019-04-22T02:29:31.042Z,55.00
2019-04-22T02:34:50.646Z,56.30
2019-04-22T02:36:58.211Z,56.80
2019-04-22T02:39:26.153Z,56.50
2019-04-22T02:41:54.999Z,54.80
2019-04-22T02:44:43.252Z,54.40
2019-04-22T02:47:16.885Z,53.70
2019-04-22T02:49:39.271Z,52.80
2019-04-22T02:52:18.023Z,53.10
2019-04-22T02:54:51.004Z,52.90
2019-04-22T02:57:18.792Z,52.10
2019-04-22T02:59:39.307Z,52.20
2019-04-22T03:02:10.341Z,52.50
2019-04-22T03:04:32.299Z,52.10
2019-04-22T03:06:47.334Z,52.20
2019-04-22T03:09:29.941Z,51.90
2019-04-22T03:12:17.232Z,51.40
2019-04-22T03:14:30.135Z,51.50
2019-04-22T03:19:34.049Z,51.10
2019-04-22T03:21:54.655Z,51.30
2019-04-22T03:24:25.719Z,51.70
2019-04-22T03:30:03.709Z,52.70
2019-04-22T03:42:05.251Z,54.00
2019-04-22T03:59:31.811Z,54.70
2019-04-22T04:02:02.542Z,54.80
2019-04-22T04:04:31.195Z,54.70
2019-04-22T04:09:23.856Z,54.80
2019-04-22T04:11:59.875Z,54.40
2019-04-22T04:14:30.186Z,54.30
2019-04-22T04:16:56.130Z,53.80
2019-04-22T04:21:41.896Z,53.40
2019-04-22T04:29:26.015Z,53.00
2019-04-22T04:31:43.293Z,52.90
2019-04-22T04:34:20.031Z,52.30
2019-04-22T04:46:49.693Z,52.10
2019-04-22T04:49:17.732Z,52.40
2019-04-22T04:51:32.985Z,52.90
2019-04-22T04:54:08.097Z,52.80
2019-04-22T04:56:34.807Z,52.40
2019-04-22T05:01:30.900Z,52.40
2019-04-22T05:06:24.255Z,52.20
2019-04-22T05:16:25.440Z,49.70
2019-04-22T05:18:44.771Z,49.70
2019-04-22T05:21:14.220Z,49.60
2019-04-22T05:23:39.399Z,50.00
2019-04-22T05:26:05.737Z,49.10
2019-04-22T05:28:33.745Z,48.00
2019-04-22T05:31:01.578Z,48.10
2019-04-22T05:33:32.432Z,48.70
2019-04-22T05:36:01.571Z,47.90
2019-04-22T05:38:33.141Z,47.90
2019-04-22T05:40:56.580Z,47.20
2019-04-22T05:43:22.639Z,46.70
2019-04-22T05:45:52.771Z,46.00
2019-04-22T05:48:18.872Z,46.10
2019-04-22T05:50:54.009Z,46.50
2019-04-22T05:53:14.842Z,46.30
2019-04-22T05:55:46.664Z,46.20
2019-04-22T05:58:15.630Z,45.70
2019-04-22T06:01:14.408Z,45.60
2019-04-22T06:03:12.383Z,45.00
2019-04-22T06:05:45.257Z,44.80
2019-04-22T06:08:10.209Z,45.50
2019-04-22T06:10:48.604Z,45.20
2019-04-22T06:13:04.428Z,44.70
2019-04-22T06:15:36.188Z,46.00
2019-04-22T06:20:45.502Z,46.30
2019-04-22T06:23:12.643Z,46.10
2019-04-22T06:28:13.626Z,46.70
2019-04-22T06:30:36.673Z,46.30
2019-04-22T06:33:00.821Z,47.20
2019-04-22T06:38:22.819Z,46.90
2019-04-22T06:40:34.261Z,46.60
2019-04-22T06:43:06.055Z,46.80
2019-04-22T06:45:29.133Z,46.70
2019-04-22T06:50:32.790Z,45.70
2019-04-22T06:52:57.182Z,45.80
2019-04-22T06:55:28.690Z,45.90
2019-04-22T06:57:51.273Z,44.80
2019-04-22T07:00:38.625Z,45.10
2019-04-22T07:02:56.383Z,44.20
2019-04-22T07:05:37.676Z,43.20
2019-04-22T07:07:45.295Z,44.50
2019-04-22T07:12:41.777Z,44.60
2019-04-22T07:15:24.199Z,42.10
2019-04-22T07:17:45.802Z,43.20
2019-04-22T07:20:16.112Z,42.20
2019-04-22T07:22:33.922Z,41.40
2019-04-22T07:25:06.118Z,41.70
2019-04-22T07:27:34.546Z,41.80
2019-04-22T07:30:09.278Z,40.20
2019-04-22T07:32:53.768Z,39.30
2019-04-22T07:37:41.971Z,39.50
2019-04-22T07:39:56.598Z,39.30
2019-04-22T07:44:59.116Z,40.80
2019-04-22T07:50:13.183Z,39.40
2019-04-22T07:52:22.824Z,39.80
2019-04-22T07:54:52.483Z,39.40
2019-04-22T07:57:32.573Z,39.50
2019-04-22T07:59:50.462Z,40.00
2019-04-22T08:02:16.051Z,38.90
2019-04-22T08:05:00.569Z,39.20
2019-04-22T08:07:17.713Z,38.20
2019-04-22T08:09:58.031Z,36.90
2019-04-22T08:12:12.851Z,37.30
2019-04-22T08:14:42.270Z,37.60
2019-04-22T08:17:33.061Z,37.80
2019-04-22T08:19:43.021Z,36.60
2019-04-22T08:22:15.725Z,37.40
2019-04-22T08:27:04.867Z,36.30
2019-04-22T08:29:37.664Z,37.10
2019-04-22T08:31:59.497Z,36.70
2019-04-22T08:34:29.963Z,36.10
2019-04-22T08:37:24.053Z,37.20
2019-04-22T08:39:33.161Z,36.70
2019-04-22T08:42:00.064Z,36.80
2019-04-22T08:44:42.245Z,36.90
2019-04-22T08:46:58.723Z,35.70
2019-04-22T08:49:27.859Z,32.90
2019-04-22T08:51:49.533Z,32.60
2019-04-22T08:54:17.956Z,30.10
2019-04-22T08:56:45.625Z,29.40
2019-04-22T09:01:45.293Z,28.30
2019-04-22T09:04:11.703Z,29.10
2019-04-22T09:07:02.763Z,28.60
2019-04-22T09:09:11.438Z,28.30
2019-04-22T09:11:58.048Z,29.30
2019-04-22T09:14:13.948Z,28.60
2019-04-22T09:16:42.814Z,27.60
2019-04-22T09:19:09.971Z,27.60
2019-04-22T09:21:43.338Z,27.90
2019-04-22T09:24:05.289Z,28.80
2019-04-22T09:26:36.259Z,28.50
2019-04-22T09:29:05.072Z,28.10
2019-04-22T09:31:35.923Z,29.30
2019-04-22T09:33:53.172Z,28.40
2019-04-22T09:36:33.752Z,28.00
2019-04-22T09:38:52.899Z,29.30
2019-04-22T09:41:27.659Z,29.60
2019-04-22T09:46:21.566Z,27.30
2019-04-22T09:48:50.149Z,28.50
2019-04-22T09:51:19.035Z,28.20
2019-04-22T09:53:54.785Z,29.20
2019-04-22T09:56:22.426Z,28.30
2019-04-22T09:58:44.648Z,28.60
2019-04-22T10:01:25.842Z,28.70
2019-04-22T10:03:49.737Z,28.40
2019-04-22T10:06:22.327Z,28.00
2019-04-22T10:08:59.313Z,29.20
2019-04-22T10:11:14.371Z,29.30
2019-04-22T10:13:42.465Z,28.70
2019-04-22T10:16:10.793Z,29.50
2019-04-22T10:18:43.509Z,27.40
2019-04-22T10:21:11.929Z,28.40
2019-04-22T10:23:35.976Z,26.80
2019-04-22T10:26:04.569Z,27.20
2019-04-22T10:28:38.483Z,25.40
2019-04-22T10:31:19.756Z,26.10
2019-04-22T10:33:22.110Z,25.50
2019-04-22T10:35:34.181Z,26.50
2019-04-22T10:38:00.948Z,26.90
2019-04-22T10:40:34.556Z,25.90
2019-04-22T10:43:01.441Z,26.20
2019-04-22T10:45:28.344Z,25.40
2019-04-22T10:47:56.053Z,25.30
2019-04-22T10:50:28.142Z,26.90
2019-04-22T10:52:55.342Z,25.90
2019-04-22T10:55:23.400Z,26.50
2019-04-22T10:57:50.735Z,25.60
2019-04-22T11:00:17.743Z,25.40
2019-04-22T11:02:45.702Z,25.90
2019-04-22T11:05:12.736Z,25.30
2019-04-22T11:07:44.032Z,25.60
2019-04-22T11:10:24.155Z,25.00
2019-04-22T11:12:38.027Z,24.70
2019-04-22T11:15:07.611Z,24.90
2019-04-22T11:17:35.558Z,25.60
2019-04-22T11:20:03.698Z,25.20
2019-04-22T11:22:33.965Z,26.30
2019-04-22T11:25:01.179Z,26.80
2019-04-22T11:27:28.667Z,26.10
2019-04-22T11:29:55.592Z,26.40
2019-04-22T11:32:22.596Z,25.70
2019-04-22T11:34:49.331Z,26.40
2019-04-22T11:37:16.625Z,26.70
2019-04-22T11:39:44.890Z,26.10
2019-04-22T11:42:12.108Z,26.10
2019-04-22T11:44:39.205Z,26.90
2019-04-22T11:47:07.489Z,25.40
2019-04-22T11:49:34.411Z,25.00
2019-04-22T11:52:01.159Z,25.50
2019-04-22T11:54:28.610Z,25.50
2019-04-22T11:56:56.785Z,23.30
2019-04-22T11:59:24.920Z,23.60
2019-04-22T12:01:52.957Z,22.60
2019-04-22T12:04:20.205Z,22.60
2019-04-22T12:06:47.031Z,22.50
2019-04-22T12:09:15.465Z,21.70
2019-04-22T12:11:42.499Z,21.20
2019-04-22T12:14:09.752Z,21.90
2019-04-22T12:16:37.196Z,22.70
2019-04-22T12:19:05.067Z,22.90
2019-04-22T12:21:33.058Z,20.50
2019-04-22T12:24:01.134Z,20.40
2019-04-22T12:26:28.701Z,20.20
2019-04-22T12:28:57.181Z,22.30
2019-04-22T12:31:24.119Z,21.20
2019-04-22T12:33:50.908Z,20.70
2019-04-22T12:36:18.210Z,20.20
2019-04-22T12:38:45.350Z,20.00
2019-04-22T12:41:13.999Z,20.20
2019-04-22T12:43:41.074Z,20.80
2019-04-22T12:46:08.010Z,20.70
2019-04-22T12:48:35.109Z,21.20
2019-04-22T12:51:02.953Z,22.40
2019-04-22T12:53:30.046Z,21.10
2019-04-22T12:55:57.393Z,21.80
2019-04-22T12:58:25.587Z,21.40
2019-04-22T13:00:52.852Z,20.90
2019-04-22T13:03:22.200Z,22.00
2019-04-22T13:05:49.485Z,22.80
2019-04-22T13:08:17.880Z,22.20
2019-04-22T13:10:53.320Z,21.70
2019-04-22T13:13:13.536Z,20.60
2019-04-22T13:15:41.261Z,20.70
2019-04-22T13:18:17.084Z,22.20
2019-04-22T13:20:36.658Z,20.20
2019-04-22T13:23:04.030Z,21.80
2019-04-22T13:25:32.434Z,20.70
2019-04-22T13:28:00.890Z,20.90
2019-04-22T13:30:28.409Z,21.60
2019-04-22T13:32:56.623Z,20.90
2019-04-22T13:35:24.620Z,21.50
2019-04-22T13:37:53.060Z,20.90
2019-04-22T13:40:21.064Z,21.30
2019-04-22T13:42:49.076Z,20.80
2019-04-22T13:45:16.095Z,20.30
2019-04-22T13:48:06.292Z,19.70
2019-04-22T13:50:49.888Z,19.40
2019-04-22T13:53:25.535Z,19.60
2019-04-22T13:55:41.211Z,21.00
2019-04-22T13:57:53.347Z,20.70
2019-04-22T14:00:10.292Z,20.80
2019-04-22T14:02:58.231Z,21.10
2019-04-22T14:05:26.799Z,19.50
2019-04-22T14:07:55.654Z,21.00
2019-04-22T14:10:22.812Z,19.00
2019-04-22T14:12:50.845Z,19.30
2019-04-22T14:15:18.344Z,21.80
2019-04-22T14:17:45.420Z,20.60
2019-04-22T14:20:13.161Z,20.60
2019-04-22T14:25:07.663Z,20.80
2019-04-22T14:27:46.221Z,23.00
2019-04-22T14:30:03.430Z,21.30
2019-04-22T14:32:31.805Z,22.10
2019-04-22T14:34:59.055Z,21.20
2019-04-22T14:37:25.777Z,21.70
2019-04-22T14:39:53.837Z,20.40
2019-04-22T14:42:40.208Z,20.20
2019-04-22T14:45:21.935Z,19.90
2019-04-22T14:47:47.582Z,21.10
2019-04-22T14:50:07.982Z,19.90
2019-04-22T14:52:41.198Z,20.30
2019-04-22T14:54:54.362Z,20.50
2019-04-22T14:57:12.960Z,20.20
2019-04-22T14:59:39.953Z,19.70
2019-04-22T15:02:09.789Z,19.70
2019-04-22T15:04:37.323Z,19.30
2019-04-22T15:07:05.294Z,20.40
2019-04-22T15:09:32.320Z,20.70
2019-04-22T15:12:13.429Z,21.40
2019-04-22T15:14:27.924Z,22.10
2019-04-22T15:20:13.947Z,22.40
2019-04-22T15:22:40.991Z,22.50
2019-04-22T15:25:08.355Z,22.20
2019-04-22T15:27:35.331Z,23.50
2019-04-22T15:30:03.562Z,22.60
2019-04-22T15:32:31.670Z,21.70
2019-04-22T15:34:59.623Z,22.10
2019-04-22T15:37:28.191Z,22.10
2019-04-22T15:39:56.662Z,21.30
2019-04-22T15:42:28.651Z,22.70
2019-04-22T15:44:53.785Z,21.70
2019-04-22T15:47:20.838Z,22.30
2019-04-22T15:49:47.876Z,22.50
2019-04-22T15:52:14.769Z,23.10
2019-04-22T15:54:41.679Z,23.50
2019-04-22T15:57:08.892Z,23.10
2019-04-22T15:59:51.864Z,22.80
2019-04-22T16:02:06.067Z,23.40
2019-04-22T16:04:34.603Z,23.10
2019-04-22T16:07:03.170Z,23.20
2019-04-22T16:09:31.281Z,23.30
2019-04-22T16:12:12.884Z,23.30
2019-04-22T16:14:32.803Z,24.00
2019-04-22T16:16:56.698Z,23.50
2019-04-22T16:19:23.608Z,23.30
2019-04-22T16:21:56.478Z,23.50
2019-04-22T16:24:38.113Z,24.00
2019-04-22T16:27:30.393Z,23.70
2019-04-22T16:29:57.276Z,23.00
2019-04-22T16:32:25.417Z,22.70
2019-04-22T16:34:52.558Z,22.50
2019-04-22T16:37:20.818Z,21.30
2019-04-22T16:39:50.263Z,21.70
2019-04-22T16:42:28.919Z,21.30
2019-04-22T16:44:47.436Z,21.60
2019-04-22T16:47:15.383Z,22.20
2019-04-22T16:49:43.512Z,22.20
2019-04-22T16:52:12.067Z,21.50
2019-04-22T16:54:40.074Z,21.30
2019-04-22T16:57:08.125Z,20.80
2019-04-22T16:59:35.237Z,21.00
2019-04-22T17:02:30.849Z,21.40
2019-04-22T17:05:13.852Z,21.20
2019-04-22T17:07:40.641Z,21.40
2019-04-22T17:10:08.239Z,21.80
2019-04-22T17:12:44.516Z,21.60
2019-04-22T17:15:08.255Z,22.90
2019-04-22T17:17:34.442Z,21.60
2019-04-22T17:20:01.213Z,21.70
2019-04-22T17:22:29.361Z,22.40
2019-04-22T17:24:58.154Z,22.90
2019-04-22T17:27:26.480Z,23.40
2019-04-22T17:29:54.649Z,23.70
2019-04-22T17:32:23.477Z,23.70
2019-04-22T17:34:51.719Z,23.60
2019-04-22T17:37:24.628Z,23.60
2019-04-22T17:40:04.332Z,23.50
2019-04-22T17:42:40.262Z,23.80
2019-04-22T17:45:34.155Z,23.50
2019-04-22T17:48:16.882Z,23.60
2019-04-22T17:50:50.939Z,23.80
2019-04-22T17:53:27.965Z,23.90
2019-04-22T17:55:50.591Z,23.90
2019-04-22T17:58:21.204Z,24.00
2019-04-22T18:00:43.483Z,23.80
2019-04-22T18:03:05.730Z,24.30
2019-04-22T18:05:30.614Z,24.30
2019-04-22T18:08:15.450Z,24.20
2019-04-22T18:10:36.165Z,24.80
2019-04-22T18:13:14.000Z,24.50
2019-04-22T18:15:37.701Z,25.10
2019-04-22T18:18:06.870Z,25.20
2019-04-22T18:20:30.794Z,25.70
2019-04-22T18:22:54.435Z,25.40
2019-04-22T18:25:24.385Z,25.90
2019-04-22T18:28:07.135Z,25.60
2019-04-22T18:30:21.867Z,26.40
2019-04-22T18:32:55.836Z,26.30
2019-04-22T18:35:25.188Z,26.40
2019-04-22T18:37:53.470Z,26.50
2019-04-22T18:40:29.288Z,26.90
2019-04-22T18:42:52.507Z,27.50
2019-04-22T18:45:35.363Z,28.70
2019-04-22T18:47:44.241Z,28.20
2019-04-22T18:50:21.976Z,30.00
2019-04-22T18:53:25.253Z,29.50
2019-04-22T18:55:44.261Z,30.60
2019-04-22T18:58:09.061Z,30.00
2019-04-22T19:00:29.205Z,30.30
2019-04-22T19:03:04.906Z,32.00
2019-04-22T19:05:40.110Z,31.80
2019-04-22T19:08:18.177Z,32.40
2019-04-22T19:10:51.852Z,31.60
2019-04-22T19:13:49.016Z,32.40
2019-04-22T19:15:43.249Z,32.40
2019-04-22T19:18:21.027Z,33.80
2019-04-22T19:20:49.833Z,33.60
2019-04-22T19:23:16.482Z,34.20
2019-04-22T19:25:29.078Z,33.80
2019-04-22T19:28:11.605Z,33.30
2019-04-22T19:30:36.650Z,34.20
2019-04-22T19:33:08.942Z,34.20
2019-04-22T19:35:26.630Z,34.40
2019-04-22T19:37:56.255Z,35.70
2019-04-22T19:40:40.667Z,35.80
2019-04-22T19:43:02.421Z,36.40
2019-04-22T19:45:28.731Z,35.20
2019-04-22T19:48:06.570Z,35.80
2019-04-22T19:50:27.345Z,35.80
2019-04-22T19:52:59.923Z,35.80
2019-04-22T19:55:23.846Z,36.50
2019-04-22T19:57:50.720Z,37.30
2019-04-22T20:00:41.971Z,37.20
2019-04-22T20:04:03.452Z,38.30
2019-04-22T20:06:39.582Z,38.10
2019-04-22T20:09:07.566Z,39.00
2019-04-22T20:11:34.083Z,38.40
2019-04-22T20:14:06.228Z,39.10
2019-04-22T20:16:27.549Z,39.10
2019-04-22T20:19:06.964Z,39.90
2019-04-22T20:23:15.916Z,39.30
2019-04-22T20:25:40.733Z,40.20
2019-04-22T20:31:03.987Z,42.00
2019-04-22T20:33:35.289Z,43.10
2019-04-22T20:36:03.726Z,44.00
2019-04-22T20:38:31.070Z,43.40
2019-04-22T20:40:58.086Z,44.40
2019-04-22T20:43:36.927Z,44.20
2019-04-22T20:45:59.207Z,44.60
2019-04-22T20:48:22.250Z,43.40
2019-04-22T20:50:59.599Z,44.60
2019-04-22T20:53:32.911Z,43.40
2019-04-22T20:55:52.523Z,42.70
2019-04-22T20:58:28.534Z,42.80
2019-04-22T21:00:46.308Z,43.20
2019-04-22T21:03:17.476Z,43.20
2019-04-22T21:05:44.477Z,43.20
2019-04-22T21:08:23.935Z,43.90
2019-04-22T21:10:44.570Z,44.60
2019-04-22T21:13:15.503Z,44.60
2019-04-22T21:15:50.474Z,44.50
2019-04-22T21:18:13.404Z,44.70
2019-04-22T21:20:49.512Z,45.20
2019-04-22T21:23:16.469Z,44.80
2019-04-22T21:25:36.865Z,45.80
2019-04-22T21:28:14.463Z,44.60
2019-04-22T21:30:43.381Z,44.80
2019-04-22T21:33:13.479Z,44.20
2019-04-22T21:35:59.563Z,44.20
2019-04-22T21:38:19.637Z,42.70
2019-04-22T21:40:40.359Z,41.60
2019-04-22T21:43:13.388Z,40.90
2019-04-22T21:45:32.221Z,40.40
2019-04-22T21:48:24.110Z,40.10
2019-04-22T21:50:50.240Z,39.50
2019-04-22T21:53:17.707Z,38.80
2019-04-22T21:55:43.708Z,39.80
2019-04-22T21:58:19.505Z,39.00
2019-04-22T22:01:17.087Z,38.40
2019-04-22T22:03:42.857Z,37.80
2019-04-22T22:06:02.332Z,38.00
2019-04-22T22:08:42.742Z,38.10
2019-04-22T22:11:07.921Z,37.90
2019-04-22T22:13:41.411Z,37.40
2019-04-22T22:16:05.171Z,37.30
2019-04-22T22:18:30.356Z,37.90
2019-04-22T22:21:19.426Z,37.90
2019-04-22T22:23:38.812Z,37.50
2019-04-22T22:25:59.644Z,37.70
2019-04-22T22:28:45.482Z,37.70
2019-04-22T22:31:11.723Z,37.40
2019-04-22T22:33:31.969Z,37.10
2019-04-22T22:35:58.444Z,37.50
2019-04-22T22:38:27.053Z,37.50
2019-04-22T22:40:41.553Z,37.50
2019-04-22T22:43:17.219Z,38.40
2019-04-22T22:45:44.967Z,37.80
2019-04-22T22:48:32.097Z,38.20
2019-04-22T22:50:50.902Z,38.90
2019-04-22T22:53:34.297Z,39.90
2019-04-22T22:55:54.793Z,40.60
2019-04-22T22:58:24.673Z,40.80
2019-04-22T23:00:44.409Z,40.90
2019-04-22T23:03:40.527Z,41.90
2019-04-22T23:06:03.603Z,42.20
2019-04-22T23:08:25.713Z,42.10
2019-04-22T23:11:07.117Z,42.60
2019-04-22T23:13:21.550Z,42.20
2019-04-22T23:15:46.692Z,42.70
2019-04-22T23:17:58.108Z,42.30
2019-04-22T23:20:31.227Z,42.40
2019-04-22T23:23:13.739Z,42.60
2019-04-22T23:25:50.033Z,42.40
2019-04-22T23:28:30.076Z,42.70
2019-04-22T23:31:14.406Z,42.60
2019-04-22T23:33:52.608Z,42.50
2019-04-22T23:36:37.084Z,43.10
2019-04-22T23:39:15.742Z,42.30
2019-04-22T23:44:20.155Z,41.70
2019-04-22T23:46:59.831Z,41.70
2019-04-22T23:49:25.266Z,41.70
2019-04-22T23:52:11.421Z,41.20
2019-04-22T23:54:39.026Z,41.20
2019-04-22T23:56:57.071Z,41.30
2019-04-22T23:59:44.911Z,41.30
